sensor_id;sensor_type;location;lat;lon;timestamp;pressure;altitude;pressure_sealevel;temperature;humidity
67345;BME280;54230;52.402;6.276;2023-11-18T00:00:00;102400.0;;;5.9;78.3
67345;BME280;54230;52.402;6.276;2023-11-18T00:05:00;102400.0;;;5.8;78.4
67345;BME280;54230;52.402;6.276;2023-11-18T00:10:00;102400.0;;;6.0;78.6
67345;BME280;54230;52.402;6.276;2023-11-18T00:15:00;102400.0;;;6.0;79.0
67345;BME280;54230;52.402;6.276;2023-11-18T00:20:00;102400.0;;;6.0;79.3
67345;BME280;54230;52.402;6.276;2023-11-18T00:25:00;102400.0;;;6.1;79.0
67345;BME280;54230;52.402;6.276;2023-11-18T00:30:00;102390.0;;;6.1;79.1
67345;BME280;54230;52.402;6.276;2023-11-18T00:35:00;102390.0;;;6.0;78.7
67345;BME280;54230;52.402;6.276;2023-11-18T00:40:00;102380.0;;;5.9;78.9
67345;BME280;54230;52.402;6.276;2023-11-18T00:45:00;102390.0;;;5.9;78.2
67345;BME280;54230;52.402;6.276;2023-11-18T00:50:00;102380.0;;;5.9;78.7
67345;BME280;54230;52.402;6.276;2023-11-18T00:55:00;102380.0;;;6.0;78.9
67345;BME280;54230;52.402;6.276;2023-11-18T01:00:00;102380.0;;;5.9;79.3
67345;BME280;54230;52.402;6.276;2023-11-18T01:05:00;102400.0;;;5.8;79.8
67345;BME280;54230;52.402;6.276;2023-11-18T01:10:00;102400.0;;;5.8;79.7
67345;BME280;54230;52.402;6.276;2023-11-18T01:15:00;102400.0;;;6.0;79.7
67345;BME280;54230;52.402;6.276;2023-11-18T01:20:00;102400.0;;;5.9;79.5
67345;BME280;54230;52.402;6.276;2023-11-18T01:25:00;102409.99999999999;;;5.8;79.5
67345;BME280;54230;52.402;6.276;2023-11-18T01:30:00;102409.99999999999;;;5.7;79.6
67345;BME280;54230;52.402;6.276;2023-11-18T01:35:00;102409.99999999999;;;5.8;79.4
67345;BME280;54230;52.402;6.276;2023-11-18T01:40:00;102409.99999999999;;;5.9;79.0
67345;BME280;54230;52.402;6.276;2023-11-18T01:45:00;102400.0;;;6.0;78.3
67345;BME280;54230;52.402;6.276;2023-11-18T01:50:01;102400.0;;;6.0;78.3
67345;BME280;54230;52.402;6.276;2023-11-18T01:55:01;102400.0;;;6.1;78.6
67345;BME280;54230;52.402;6.276;2023-11-18T02:00:01;102400.0;;;6.2;78.7
67345;BME280;54230;52.402;6.276;2023-11-18T02:05:00;102390.0;;;6.2;79.3
67345;BME280;54230;52.402;6.276;2023-11-18T02:10:00;102390.0;;;6.3;79.8
67345;BME280;54230;52.402;6.276;2023-11-18T02:15:03;102390.0;;;6.6;79.7
67345;BME280;54230;52.402;6.276;2023-11-18T02:20:01;102380.0;;;6.6;79.6
67345;BME280;54230;52.402;6.276;2023-11-18T02:25:02;102380.0;;;6.6;79.8
67345;BME280;54230;52.402;6.276;2023-11-18T02:30:00;102380.0;;;6.6;79.5
67345;BME280;54230;52.402;6.276;2023-11-18T02:35:08;102380.0;;;6.6;79.8
67345;BME280;54230;52.402;6.276;2023-11-18T02:40:03;102380.0;;;6.6;79.9
67345;BME280;54230;52.402;6.276;2023-11-18T02:45:01;102380.0;;;6.8;79.8
67345;BME280;54230;52.402;6.276;2023-11-18T02:50:00;102380.0;;;6.7;80.1
67345;BME280;54230;52.402;6.276;2023-11-18T02:55:00;102390.0;;;6.8;79.8
67345;BME280;54230;52.402;6.276;2023-11-18T03:00:00;102370.0;;;7.0;79.7
67345;BME280;54230;52.402;6.276;2023-11-18T03:05:00;102370.0;;;7.0;79.9
67345;BME280;54230;52.402;6.276;2023-11-18T03:10:00;102360.0;;;6.9;80.2
67345;BME280;54230;52.402;6.276;2023-11-18T03:15:00;102360.0;;;7.0;80.0
67345;BME280;54230;52.402;6.276;2023-11-18T03:20:00;102350.0;;;6.8;79.7
67345;BME280;54230;52.402;6.276;2023-11-18T03:25:00;102350.0;;;6.8;79.9
67345;BME280;54230;52.402;6.276;2023-11-18T03:30:00;102350.0;;;6.8;80.0
67345;BME280;54230;52.402;6.276;2023-11-18T03:35:00;102350.0;;;6.9;80.3
67345;BME280;54230;52.402;6.276;2023-11-18T03:40:00;102360.0;;;7.0;80.4
67345;BME280;54230;52.402;6.276;2023-11-18T03:45:00;102360.0;;;7.1;80.5
67345;BME280;54230;52.402;6.276;2023-11-18T03:50:00;102360.0;;;7.1;80.5
67345;BME280;54230;52.402;6.276;2023-11-18T03:55:02;102360.0;;;7.1;80.8
67345;BME280;54230;52.402;6.276;2023-11-18T04:00:00;102350.0;;;7.3;80.4
67345;BME280;54230;52.402;6.276;2023-11-18T04:05:00;102340.0;;;7.4;80.5
67345;BME280;54230;52.402;6.276;2023-11-18T04:10:00;102320.0;;;7.3;80.8
67345;BME280;54230;52.402;6.276;2023-11-18T04:15:00;102310.0;;;7.4;80.9
67345;BME280;54230;52.402;6.276;2023-11-18T04:20:00;102300.0;;;7.5;81.1
67345;BME280;54230;52.402;6.276;2023-11-18T04:25:00;102290.0;;;7.6;80.8
67345;BME280;54230;52.402;6.276;2023-11-18T04:30:00;102290.0;;;7.6;81.0
67345;BME280;54230;52.402;6.276;2023-11-18T04:35:00;102290.0;;;7.7;81.2
67345;BME280;54230;52.402;6.276;2023-11-18T04:40:00;102280.0;;;7.7;81.6
67345;BME280;54230;52.402;6.276;2023-11-18T04:45:00;102270.0;;;7.6;81.8
67345;BME280;54230;52.402;6.276;2023-11-18T04:50:00;102260.0;;;7.6;81.8
67345;BME280;54230;52.402;6.276;2023-11-18T04:55:00;102260.0;;;7.7;81.7
67345;BME280;54230;52.402;6.276;2023-11-18T05:00:00;102250.0;;;7.8;81.8
67345;BME280;54230;52.402;6.276;2023-11-18T05:05:00;102250.0;;;7.8;81.7
67345;BME280;54230;52.402;6.276;2023-11-18T05:10:00;102240.0;;;7.8;81.8
67345;BME280;54230;52.402;6.276;2023-11-18T05:15:00;102240.0;;;7.9;81.9
67345;BME280;54230;52.402;6.276;2023-11-18T05:20:00;102230.0;;;7.9;81.9
67345;BME280;54230;52.402;6.276;2023-11-18T05:25:00;102240.0;;;7.9;82.1
67345;BME280;54230;52.402;6.276;2023-11-18T05:30:00;102250.0;;;8.0;81.7
67345;BME280;54230;52.402;6.276;2023-11-18T05:35:00;102250.0;;;8.1;81.6
67345;BME280;54230;52.402;6.276;2023-11-18T05:40:00;102250.0;;;8.1;81.2
67345;BME280;54230;52.402;6.276;2023-11-18T05:45:00;102250.0;;;8.1;81.3
67345;BME280;54230;52.402;6.276;2023-11-18T05:50:00;102230.0;;;8.1;81.3
67345;BME280;54230;52.402;6.276;2023-11-18T05:55:00;102230.0;;;8.2;81.3
67345;BME280;54230;52.402;6.276;2023-11-18T06:00:00;102220.0;;;8.2;81.4
67345;BME280;54230;52.402;6.276;2023-11-18T06:05:00;102210.0;;;8.1;81.7
67345;BME280;54230;52.402;6.276;2023-11-18T06:10:00;102210.0;;;8.1;81.6
67345;BME280;54230;52.402;6.276;2023-11-18T06:15:00;102200.0;;;8.0;81.8
67345;BME280;54230;52.402;6.276;2023-11-18T06:20:00;102200.0;;;8.1;81.8
67345;BME280;54230;52.402;6.276;2023-11-18T06:25:00;102180.0;;;8.1;82.0
67345;BME280;54230;52.402;6.276;2023-11-18T06:30:00;102190.0;;;8.5;82.0
67345;BME280;54230;52.402;6.276;2023-11-18T06:35:00;102190.0;;;8.7;81.9
67345;BME280;54230;52.402;6.276;2023-11-18T06:40:00;102210.0;;;8.8;82.2
67345;BME280;54230;52.402;6.276;2023-11-18T06:45:00;102210.0;;;8.5;82.3
67345;BME280;54230;52.402;6.276;2023-11-18T06:50:00;102190.0;;;8.4;82.1
67345;BME280;54230;52.402;6.276;2023-11-18T06:55:00;102190.0;;;8.3;81.9
67345;BME280;54230;52.402;6.276;2023-11-18T07:00:00;102200.0;;;8.5;82.2
67345;BME280;54230;52.402;6.276;2023-11-18T07:05:00;102210.0;;;8.7;82.6
67345;BME280;54230;52.402;6.276;2023-11-18T07:10:00;102220.0;;;8.9;83.0
67345;BME280;54230;52.402;6.276;2023-11-18T07:15:00;102220.0;;;9.1;83.2
67345;BME280;54230;52.402;6.276;2023-11-18T07:20:00;102230.0;;;9.0;83.3
67345;BME280;54230;52.402;6.276;2023-11-18T07:25:00;102240.0;;;9.3;83.3
67345;BME280;54230;52.402;6.276;2023-11-18T07:30:00;102240.0;;;9.2;83.1
67345;BME280;54230;52.402;6.276;2023-11-18T07:35:00;102220.0;;;9.1;83.0
67345;BME280;54230;52.402;6.276;2023-11-18T07:40:00;102230.0;;;9.0;82.9
67345;BME280;54230;52.402;6.276;2023-11-18T07:45:00;102220.0;;;8.9;82.8
67345;BME280;54230;52.402;6.276;2023-11-18T07:50:00;102210.0;;;9.0;83.0
67345;BME280;54230;52.402;6.276;2023-11-18T07:55:00;102210.0;;;9.1;82.8
67345;BME280;54230;52.402;6.276;2023-11-18T08:00:00;102220.0;;;8.9;83.1
67345;BME280;54230;52.402;6.276;2023-11-18T08:05:00;102210.0;;;8.8;82.8
67345;BME280;54230;52.402;6.276;2023-11-18T08:10:01;102200.0;;;8.9;82.7
67345;BME280;54230;52.402;6.276;2023-11-18T08:15:00;102200.0;;;9.1;82.6
67345;BME280;54230;52.402;6.276;2023-11-18T08:20:00;102190.0;;;9.1;82.4
67345;BME280;54230;52.402;6.276;2023-11-18T08:25:00;102180.0;;;9.0;81.7
67345;BME280;54230;52.402;6.276;2023-11-18T08:30:00;102170.0;;;8.8;81.6
67345;BME280;54230;52.402;6.276;2023-11-18T08:35:00;102150.0;;;8.9;81.9
67345;BME280;54230;52.402;6.276;2023-11-18T08:40:01;102150.0;;;8.8;81.5
67345;BME280;54230;52.402;6.276;2023-11-18T08:45:00;102150.0;;;8.8;81.6
67345;BME280;54230;52.402;6.276;2023-11-18T08:50:00;102140.0;;;8.8;82.1
67345;BME280;54230;52.402;6.276;2023-11-18T08:55:00;102140.0;;;8.9;82.0
67345;BME280;54230;52.402;6.276;2023-11-18T09:00:00;102130.0;;;8.9;82.4
67345;BME280;54230;52.402;6.276;2023-11-18T09:05:00;102110.0;;;9.1;82.5
67345;BME280;54230;52.402;6.276;2023-11-18T09:10:00;102110.0;;;9.2;82.5
67345;BME280;54230;52.402;6.276;2023-11-18T09:15:00;102120.0;;;9.2;82.5
67345;BME280;54230;52.402;6.276;2023-11-18T09:20:00;102110.0;;;9.4;82.4
67345;BME280;54230;52.402;6.276;2023-11-18T09:25:00;102110.0;;;9.5;82.2
67345;BME280;54230;52.402;6.276;2023-11-18T09:30:00;102090.0;;;9.4;81.6
67345;BME280;54230;52.402;6.276;2023-11-18T09:35:00;102080.0;;;9.4;81.7
67345;BME280;54230;52.402;6.276;2023-11-18T09:40:00;102090.0;;;9.5;81.6
67345;BME280;54230;52.402;6.276;2023-11-18T09:45:00;102090.0;;;9.5;81.6
67345;BME280;54230;52.402;6.276;2023-11-18T09:50:02;102080.0;;;9.5;82.2
67345;BME280;54230;52.402;6.276;2023-11-18T09:55:02;102070.0;;;9.5;82.6
67345;BME280;54230;52.402;6.276;2023-11-18T10:00:02;102070.0;;;9.6;82.3
67345;BME280;54230;52.402;6.276;2023-11-18T10:05:01;102040.0;;;9.6;82.1
67345;BME280;54230;52.402;6.276;2023-11-18T10:10:01;102030.0;;;9.7;81.5
67345;BME280;54230;52.402;6.276;2023-11-18T10:15:00;102030.0;;;9.7;81.7
67345;BME280;54230;52.402;6.276;2023-11-18T10:20:00;102020.0;;;9.6;81.4
67345;BME280;54230;52.402;6.276;2023-11-18T10:25:00;102030.0;;;9.6;81.0
67345;BME280;54230;52.402;6.276;2023-11-18T10:30:02;102020.0;;;9.6;81.3
67345;BME280;54230;52.402;6.276;2023-11-18T10:35:01;102010.0;;;9.6;81.2
67345;BME280;54230;52.402;6.276;2023-11-18T10:40:04;101980.0;;;9.7;80.8
67345;BME280;54230;52.402;6.276;2023-11-18T10:45:00;101970.0;;;9.6;80.1
67345;BME280;54230;52.402;6.276;2023-11-18T10:50:01;101960.0;;;9.5;79.5
67345;BME280;54230;52.402;6.276;2023-11-18T10:55:01;101960.0;;;9.3;78.9
67345;BME280;54230;52.402;6.276;2023-11-18T11:00:01;101980.0;;;9.3;78.8
67345;BME280;54230;52.402;6.276;2023-11-18T11:05:01;101990.0;;;9.3;78.6
67345;BME280;54230;52.402;6.276;2023-11-18T11:10:00;101980.0;;;9.2;78.8
67345;BME280;54230;52.402;6.276;2023-11-18T11:15:07;101970.0;;;9.2;78.6
67345;BME280;54230;52.402;6.276;2023-11-18T11:20:04;101960.0;;;9.3;78.2
67345;BME280;54230;52.402;6.276;2023-11-18T11:25:07;101940.0;;;9.3;78.1
67345;BME280;54230;52.402;6.276;2023-11-18T11:30:02;101950.0;;;9.2;78.3
67345;BME280;54230;52.402;6.276;2023-11-18T11:35:01;101940.0;;;9.1;78.5
67345;BME280;54230;52.402;6.276;2023-11-18T11:40:02;101940.0;;;9.2;78.8
67345;BME280;54230;52.402;6.276;2023-11-18T11:45:01;101920.0;;;9.3;78.3
67345;BME280;54230;52.402;6.276;2023-11-18T11:50:06;101890.0;;;9.3;78.3
67345;BME280;54230;52.402;6.276;2023-11-18T11:55:05;101870.0;;;9.2;78.3
67345;BME280;54230;52.402;6.276;2023-11-18T12:00:02;101860.0;;;9.2;78.3
67345;BME280;54230;52.402;6.276;2023-11-18T12:05:00;101850.0;;;9.2;78.7
67345;BME280;54230;52.402;6.276;2023-11-18T12:10:00;101840.0;;;9.3;78.7
67345;BME280;54230;52.402;6.276;2023-11-18T12:15:00;101840.0;;;9.2;79.2
67345;BME280;54230;52.402;6.276;2023-11-18T12:20:00;101830.0;;;9.3;79.5
67345;BME280;54230;52.402;6.276;2023-11-18T12:30:00;101800.0;;;9.3;80.0
67345;BME280;54230;52.402;6.276;2023-11-18T12:35:00;101780.0;;;9.3;79.9
67345;BME280;54230;52.402;6.276;2023-11-18T12:40:21;101770.0;;;9.4;80.2
67345;BME280;54230;52.402;6.276;2023-11-18T12:45:12;101740.0;;;9.4;80.2
67345;BME280;54230;52.402;6.276;2023-11-18T12:50:00;101720.0;;;9.4;80.5
67345;BME280;54230;52.402;6.276;2023-11-18T12:55:01;101730.0;;;9.4;80.7
67345;BME280;54230;52.402;6.276;2023-11-18T13:00:00;101710.0;;;9.5;80.8
67345;BME280;54230;52.402;6.276;2023-11-18T13:05:04;101680.0;;;9.5;80.7
67345;BME280;54230;52.402;6.276;2023-11-18T13:10:01;101680.0;;;9.6;81.3
67345;BME280;54230;52.402;6.276;2023-11-18T13:15:00;101680.0;;;9.5;81.5
67345;BME280;54230;52.402;6.276;2023-11-18T13:20:11;101660.0;;;9.6;81.5
67345;BME280;54230;52.402;6.276;2023-11-18T13:25:00;101650.0;;;9.6;81.5
67345;BME280;54230;52.402;6.276;2023-11-18T13:30:00;101590.0;;;9.6;81.5
67345;BME280;54230;52.402;6.276;2023-11-18T13:35:01;101520.0;;;9.5;81.9
67345;BME280;54230;52.402;6.276;2023-11-18T13:40:01;101530.0;;;9.5;82.3
67345;BME280;54230;52.402;6.276;2023-11-18T13:45:02;101590.0;;;9.6;82.3
67345;BME280;54230;52.402;6.276;2023-11-18T13:50:00;101610.0;;;9.7;81.8
67345;BME280;54230;52.402;6.276;2023-11-18T13:55:00;101610.0;;;9.7;81.7
67345;BME280;54230;52.402;6.276;2023-11-18T14:00:00;101600.0;;;9.7;82.2
67345;BME280;54230;52.402;6.276;2023-11-18T14:05:00;101570.0;;;9.7;82.1
67345;BME280;54230;52.402;6.276;2023-11-18T14:10:00;101540.0;;;9.6;82.1
67345;BME280;54230;52.402;6.276;2023-11-18T14:15:00;101530.0;;;9.7;82.1
67345;BME280;54230;52.402;6.276;2023-11-18T14:20:00;101520.0;;;9.6;82.4
67345;BME280;54230;52.402;6.276;2023-11-18T14:25:00;101510.0;;;9.5;82.7
67345;BME280;54230;52.402;6.276;2023-11-18T14:30:00;101480.0;;;9.5;82.8
67345;BME280;54230;52.402;6.276;2023-11-18T14:35:00;101470.0;;;9.6;82.4
67345;BME280;54230;52.402;6.276;2023-11-18T14:40:00;101470.0;;;9.5;82.5
67345;BME280;54230;52.402;6.276;2023-11-18T14:45:00;101430.0;;;9.5;82.6
67345;BME280;54230;52.402;6.276;2023-11-18T14:50:00;101410.0;;;9.5;83.0
67345;BME280;54230;52.402;6.276;2023-11-18T14:55:00;101410.0;;;9.4;83.5
67345;BME280;54230;52.402;6.276;2023-11-18T15:00:00;101410.0;;;9.4;83.6
67345;BME280;54230;52.402;6.276;2023-11-18T15:05:00;101400.0;;;9.3;83.9
67345;BME280;54230;52.402;6.276;2023-11-18T15:10:00;101390.0;;;9.2;84.6
67345;BME280;54230;52.402;6.276;2023-11-18T15:15:00;101350.0;;;9.2;84.8
67345;BME280;54230;52.402;6.276;2023-11-18T15:20:00;101350.0;;;9.2;85.2
67345;BME280;54230;52.402;6.276;2023-11-18T15:25:00;101340.0;;;9.2;85.1
67345;BME280;54230;52.402;6.276;2023-11-18T15:30:00;101330.0;;;9.2;85.6
67345;BME280;54230;52.402;6.276;2023-11-18T15:35:00;101330.0;;;9.4;85.7
67345;BME280;54230;52.402;6.276;2023-11-18T15:40:00;101330.0;;;10.1;85.9
67345;BME280;54230;52.402;6.276;2023-11-18T15:45:00;101310.0;;;10.4;85.8
67345;BME280;54230;52.402;6.276;2023-11-18T15:50:00;101280.0;;;10.4;85.8
67345;BME280;54230;52.402;6.276;2023-11-18T15:55:01;101270.0;;;10.6;85.6
67345;BME280;54230;52.402;6.276;2023-11-18T16:00:00;101270.0;;;10.3;85.8
67345;BME280;54230;52.402;6.276;2023-11-18T16:05:00;101260.0;;;10.3;85.8
67345;BME280;54230;52.402;6.276;2023-11-18T16:10:00;101240.0;;;10.3;86.3
67345;BME280;54230;52.402;6.276;2023-11-18T16:15:00;101230.0;;;10.3;86.5
67345;BME280;54230;52.402;6.276;2023-11-18T16:20:00;101230.0;;;10.6;86.5
67345;BME280;54230;52.402;6.276;2023-11-18T16:25:00;101220.0;;;10.4;86.7
67345;BME280;54230;52.402;6.276;2023-11-18T16:30:00;101210.0;;;10.4;86.7
67345;BME280;54230;52.402;6.276;2023-11-18T16:35:00;101200.0;;;10.4;86.0
67345;BME280;54230;52.402;6.276;2023-11-18T16:40:00;101170.0;;;10.5;86.1
67345;BME280;54230;52.402;6.276;2023-11-18T16:45:00;101190.0;;;10.2;85.9
67345;BME280;54230;52.402;6.276;2023-11-18T16:50:00;101160.0;;;10.3;86.2
67345;BME280;54230;52.402;6.276;2023-11-18T16:55:00;101150.0;;;10.3;86.5
67345;BME280;54230;52.402;6.276;2023-11-18T17:00:00;101140.0;;;9.8;86.4
67345;BME280;54230;52.402;6.276;2023-11-18T17:05:00;101140.0;;;9.7;86.1
67345;BME280;54230;52.402;6.276;2023-11-18T17:10:00;101130.0;;;9.6;86.2
67345;BME280;54230;52.402;6.276;2023-11-18T17:15:00;101130.0;;;9.7;86.1
67345;BME280;54230;52.402;6.276;2023-11-18T17:20:00;101130.0;;;9.5;86.4
67345;BME280;54230;52.402;6.276;2023-11-18T17:25:00;101130.0;;;9.6;86.4
67345;BME280;54230;52.402;6.276;2023-11-18T17:30:00;101110.0;;;9.6;86.3
67345;BME280;54230;52.402;6.276;2023-11-18T17:35:00;101120.0;;;9.5;86.6
67345;BME280;54230;52.402;6.276;2023-11-18T17:40:00;101130.0;;;9.6;86.5
67345;BME280;54230;52.402;6.276;2023-11-18T17:45:00;101110.0;;;9.7;86.4
67345;BME280;54230;52.402;6.276;2023-11-18T17:50:00;101090.0;;;9.8;86.2
67345;BME280;54230;52.402;6.276;2023-11-18T17:55:00;101080.0;;;9.6;86.6
67345;BME280;54230;52.402;6.276;2023-11-18T18:00:00;101080.0;;;9.7;86.7
67345;BME280;54230;52.402;6.276;2023-11-18T18:05:00;101080.0;;;9.7;87.0
67345;BME280;54230;52.402;6.276;2023-11-18T18:10:00;101050.0;;;9.7;87.1
67345;BME280;54230;52.402;6.276;2023-11-18T18:15:00;101040.0;;;9.6;87.3
67345;BME280;54230;52.402;6.276;2023-11-18T18:20:00;101020.0;;;9.7;87.3
67345;BME280;54230;52.402;6.276;2023-11-18T18:25:00;101000.0;;;9.7;87.3
67345;BME280;54230;52.402;6.276;2023-11-18T18:30:01;100990.0;;;9.8;87.5
67345;BME280;54230;52.402;6.276;2023-11-18T18:35:00;100980.0;;;9.8;87.4
67345;BME280;54230;52.402;6.276;2023-11-18T18:40:00;100980.0;;;9.9;87.5
67345;BME280;54230;52.402;6.276;2023-11-18T18:45:00;100990.0;;;9.9;87.3
67345;BME280;54230;52.402;6.276;2023-11-18T18:50:00;100990.0;;;10.0;87.1
67345;BME280;54230;52.402;6.276;2023-11-18T18:55:00;100990.0;;;10.0;87.5
67345;BME280;54230;52.402;6.276;2023-11-18T19:00:00;100990.0;;;10.1;87.4
67345;BME280;54230;52.402;6.276;2023-11-18T19:05:00;101000.0;;;10.1;87.5
67345;BME280;54230;52.402;6.276;2023-11-18T19:10:00;100990.0;;;10.2;87.4
67345;BME280;54230;52.402;6.276;2023-11-18T19:15:00;100980.0;;;10.2;87.8
67345;BME280;54230;52.402;6.276;2023-11-18T19:25:00;100970.0;;;10.4;87.8
67345;BME280;54230;52.402;6.276;2023-11-18T19:30:00;100970.0;;;10.6;87.8
67345;BME280;54230;52.402;6.276;2023-11-18T19:35:00;100960.0;;;10.6;87.6
67345;BME280;54230;52.402;6.276;2023-11-18T19:40:00;100950.0;;;10.6;87.9
67345;BME280;54230;52.402;6.276;2023-11-18T19:45:01;100940.0;;;10.6;88.0
67345;BME280;54230;52.402;6.276;2023-11-18T19:50:01;100940.0;;;10.7;88.2
67345;BME280;54230;52.402;6.276;2023-11-18T19:55:00;100920.0;;;10.8;88.5
67345;BME280;54230;52.402;6.276;2023-11-18T20:00:00;100940.0;;;11.0;88.2
67345;BME280;54230;52.402;6.276;2023-11-18T20:05:00;100920.0;;;11.2;88.3
67345;BME280;54230;52.402;6.276;2023-11-18T20:10:00;100910.0;;;11.2;88.3
67345;BME280;54230;52.402;6.276;2023-11-18T20:15:00;100900.0;;;11.2;88.7
67345;BME280;54230;52.402;6.276;2023-11-18T20:20:00;100900.0;;;11.3;88.5
67345;BME280;54230;52.402;6.276;2023-11-18T20:25:00;100890.0;;;11.4;88.3
67345;BME280;54230;52.402;6.276;2023-11-18T20:30:00;100890.0;;;11.4;88.5
67345;BME280;54230;52.402;6.276;2023-11-18T20:35:00;100880.0;;;11.5;88.4
67345;BME280;54230;52.402;6.276;2023-11-18T20:40:00;100880.0;;;11.5;88.2
67345;BME280;54230;52.402;6.276;2023-11-18T20:45:00;100870.0;;;11.6;88.5
67345;BME280;54230;52.402;6.276;2023-11-18T20:50:00;100860.0;;;11.8;88.2
67345;BME280;54230;52.402;6.276;2023-11-18T20:55:00;100870.0;;;11.8;88.4
67345;BME280;54230;52.402;6.276;2023-11-18T21:00:00;100870.0;;;11.8;88.7
67345;BME280;54230;52.402;6.276;2023-11-18T21:05:01;100870.0;;;11.9;88.7
67345;BME280;54230;52.402;6.276;2023-11-18T21:10:00;100880.0;;;12.0;88.7
67345;BME280;54230;52.402;6.276;2023-11-18T21:15:00;100890.0;;;12.1;88.7
67345;BME280;54230;52.402;6.276;2023-11-18T21:20:00;100860.0;;;12.2;88.7
67345;BME280;54230;52.402;6.276;2023-11-18T21:25:00;100860.0;;;12.2;88.8
67345;BME280;54230;52.402;6.276;2023-11-18T21:30:00;100850.0;;;12.4;88.7
67345;BME280;54230;52.402;6.276;2023-11-18T21:35:00;100830.0;;;12.6;88.6
67345;BME280;54230;52.402;6.276;2023-11-18T21:40:00;100840.0;;;12.6;88.7
67345;BME280;54230;52.402;6.276;2023-11-18T21:45:01;100840.0;;;12.7;88.7
67345;BME280;54230;52.402;6.276;2023-11-18T21:50:00;100830.0;;;12.8;88.7
67345;BME280;54230;52.402;6.276;2023-11-18T21:55:00;100810.0;;;12.9;88.8
67345;BME280;54230;52.402;6.276;2023-11-18T22:00:00;100810.0;;;12.9;89.2
67345;BME280;54230;52.402;6.276;2023-11-18T22:05:00;100820.0;;;13.0;89.3
67345;BME280;54230;52.402;6.276;2023-11-18T22:10:00;100790.0;;;13.1;89.1
67345;BME280;54230;52.402;6.276;2023-11-18T22:15:00;100790.0;;;13.2;89.0
67345;BME280;54230;52.402;6.276;2023-11-18T22:20:00;100790.0;;;13.2;89.1
67345;BME280;54230;52.402;6.276;2023-11-18T22:25:00;100790.0;;;13.3;89.2
67345;BME280;54230;52.402;6.276;2023-11-18T22:30:00;100780.0;;;13.4;89.4
67345;BME280;54230;52.402;6.276;2023-11-18T22:35:00;100790.0;;;13.4;89.4
67345;BME280;54230;52.402;6.276;2023-11-18T22:40:00;100790.0;;;13.5;89.5
67345;BME280;54230;52.402;6.276;2023-11-18T22:45:00;100780.0;;;13.6;89.6
67345;BME280;54230;52.402;6.276;2023-11-18T22:50:00;100780.0;;;13.6;89.8
67345;BME280;54230;52.402;6.276;2023-11-18T22:55:00;100780.0;;;13.6;90.1
67345;BME280;54230;52.402;6.276;2023-11-18T23:00:00;100780.0;;;13.7;90.3
67345;BME280;54230;52.402;6.276;2023-11-18T23:05:00;100770.0;;;13.9;90.0
67345;BME280;54230;52.402;6.276;2023-11-18T23:10:00;100770.0;;;13.9;90.0
67345;BME280;54230;52.402;6.276;2023-11-18T23:15:00;100780.0;;;13.8;90.2
67345;BME280;54230;52.402;6.276;2023-11-18T23:20:00;100760.0;;;13.9;90.2
67345;BME280;54230;52.402;6.276;2023-11-18T23:25:00;100750.0;;;14.0;90.0
67345;BME280;54230;52.402;6.276;2023-11-18T23:30:00;100750.0;;;14.1;89.6
67345;BME280;54230;52.402;6.276;2023-11-18T23:35:01;100740.0;;;14.2;89.7
67345;BME280;54230;52.402;6.276;2023-11-18T23:40:00;100740.0;;;14.2;89.8
67345;BME280;54230;52.402;6.276;2023-11-18T23:45:00;100740.0;;;14.3;89.7
67345;BME280;54230;52.402;6.276;2023-11-18T23:50:00;100740.0;;;14.3;90.0
67345;BME280;54230;52.402;6.276;2023-11-18T23:55:00;100730.0;;;14.4;90.0
